Terminal Aerodrome Forecast
Issued by NWS Sioux Falls, SD

Home | Current Version | Previous Version | Graphics & Text | Print | Product List | Glossary On
Versions: 1 2 3 4 5 6 7 8 9 10 11 12 13 14 15 16 17 18 19 20 21
000
FTUS43 KFSD 231720
TAFFSD
TAF
KFSD 231720Z 2318/2418 11005KT P6SM SCT012 OVC020
     FM232100 09005KT P6SM VCTS OVC035CB
     FM240100 10008KT P6SM VCSH BKN050
     FM240300 13010KT P6SM OVC040
     FM240500 14009KT P6SM BKN040 WS020/18040KT
     FM241300 17009KT P6SM SCT020 BKN050=

USA.gov is the U.S. government's official web portal to all federal, state and local government web resources and services.